Time;durP1;ratioP1;P1;durP2;ratioP2;P2;SDS_P1;SDS_P2;PMS_P1;PMS_P2;Temp;Humidity;BMP_temperature;BMP_pressure;BME280_temperature;BME280_humidity;BME280_pressure;Samples;Min_cycle;Max_cycle;Signal;HPM_P1;HPM_P2
2021/11/13 00:02:04;;;;;;;35.25;18.60;;;;;;;2.70;61.47;95924.78;5045792;28;20028;-79
2021/11/13 00:04:31;;;;;;;32.03;18.85;;;;;;;2.59;60.92;95931.75;5049051;28;20031;-78
2021/11/13 00:06:56;;;;;;;36.70;18.63;;;;;;;2.52;61.63;95927.00;5049995;28;20024;-77
2021/11/13 00:09:21;;;;;;;41.90;21.00;;;;;;;2.51;61.39;95931.47;5049111;28;20384;-79
2021/11/13 00:11:47;;;;;;;69.60;24.95;;;;;;;2.61;61.35;95934.28;5048423;28;20434;-77
2021/11/13 00:14:17;;;;;;;71.03;26.38;;;;;;;2.63;61.27;95936.81;5049256;28;20549;-78
2021/11/13 00:16:42;;;;;;;83.13;26.80;;;;;;;2.62;61.15;95929.81;5047995;28;20032;-79
2021/11/13 00:19:08;;;;;;;76.50;26.38;;;;;;;2.62;61.07;95932.44;5049665;28;20025;-78
2021/11/13 00:21:33;;;;;;;83.60;25.90;;;;;;;2.65;61.87;95929.56;5048932;28;20033;-79
2021/11/13 00:23:59;;;;;;;69.50;25.38;;;;;;;2.61;62.13;95933.41;5047767;28;20083;-77
2021/11/13 00:26:24;;;;;;;54.45;22.73;;;;;;;2.54;62.29;95931.25;5040884;28;20029;-79
2021/11/13 00:28:49;;;;;;;53.72;23.15;;;;;;;2.56;62.31;95931.13;5033482;28;20440;-79
2021/11/13 00:31:15;;;;;;;58.17;24.25;;;;;;;2.49;61.69;95932.53;5033333;28;20495;-78
2021/11/13 00:33:40;;;;;;;51.05;25.60;;;;;;;2.50;62.05;95934.22;5045914;28;20029;-77
2021/11/13 00:36:06;;;;;;;60.90;27.55;;;;;;;2.58;61.31;95927.38;5041020;28;20075;-76
2021/11/13 00:38:31;;;;;;;43.67;24.05;;;;;;;2.59;61.52;95928.25;5046631;28;20550;-74
2021/11/13 00:40:57;;;;;;;37.03;20.23;;;;;;;2.67;60.79;95933.81;5048932;28;20033;-75
2021/11/13 00:43:22;;;;;;;42.20;20.80;;;;;;;2.74;60.83;95928.88;5048609;28;20029;-74
2021/11/13 00:45:48;;;;;;;41.45;21.45;;;;;;;2.80;60.18;95931.09;5045806;28;20063;-78
2021/11/13 00:48:13;;;;;;;41.38;20.83;;;;;;;2.89;60.87;95939.28;5043117;28;20033;-77
2021/11/13 00:50:40;;;;;;;37.65;21.92;;;;;;;2.89;60.53;95933.97;5047956;28;20029;-78
2021/11/13 00:53:06;;;;;;;45.20;23.05;;;;;;;2.86;61.03;95935.06;5045948;28;20534;-78
2021/11/13 00:55:31;;;;;;;49.42;24.92;;;;;;;2.83;61.38;95933.50;5048459;28;20033;-78
2021/11/13 00:57:57;;;;;;;56.47;26.52;;;;;;;2.79;61.74;95937.31;5048419;28;20040;-77
2021/11/13 01:00:22;;;;;;;60.03;30.45;;;;;;;2.82;62.00;95928.31;5031572;28;20041;-76
2021/11/13 01:02:49;;;;;;;65.90;30.92;;;;;;;2.82;62.52;95931.78;5028543;28;20033;-77
2021/11/13 01:05:14;;;;;;;60.17;28.77;;;;;;;2.78;62.14;95933.00;5027072;28;20075;-76
2021/11/13 01:07:40;;;;;;;56.67;28.80;;;;;;;2.71;61.66;95926.47;5027821;28;20033;-77
2021/11/13 01:10:06;;;;;;;58.33;25.27;;;;;;;2.68;61.61;95924.03;5027534;28;20034;-77
2021/11/13 01:12:32;;;;;;;49.38;24.33;;;;;;;2.55;60.71;95927.63;5028034;28;20164;-76
2021/11/13 01:14:57;;;;;;;46.53;23.80;;;;;;;2.48;60.70;95926.41;5024575;28;20108;-78
2021/11/13 01:17:23;;;;;;;41.97;21.52;;;;;;;2.40;60.44;95921.66;5043291;28;20033;-77
2021/11/13 01:19:48;;;;;;;41.33;21.73;;;;;;;2.30;60.23;95918.00;5036501;28;20025;-77
2021/11/13 01:22:14;;;;;;;41.67;21.75;;;;;;;2.32;61.04;95922.22;5028486;28;20033;-78
2021/11/13 01:24:40;;;;;;;38.67;20.33;;;;;;;2.26;60.84;95920.03;5027445;28;20038;-78
2021/11/13 01:27:05;;;;;;;41.28;21.10;;;;;;;2.22;61.21;95919.41;5046559;28;20056;-77
2021/11/13 01:29:31;;;;;;;37.35;19.25;;;;;;;2.18;61.82;95922.41;5040070;28;20032;-77
2021/11/13 01:31:56;;;;;;;42.03;20.20;;;;;;;2.17;62.23;95920.72;5042842;28;20036;-78
2021/11/13 01:34:22;;;;;;;33.65;17.40;;;;;;;2.15;62.17;95920.84;5047374;28;20083;-77
2021/11/13 01:36:47;;;;;;;27.58;15.27;;;;;;;2.13;62.24;95914.78;5046076;28;20041;-77
2021/11/13 01:39:12;;;;;;;31.75;16.80;;;;;;;2.13;61.54;95916.63;5026802;28;20033;-76
2021/11/13 01:41:38;;;;;;;31.88;16.60;;;;;;;2.09;61.44;95913.34;5026866;28;20029;-76
2021/11/13 01:44:07;;;;;;;30.10;16.08;;;;;;;2.07;62.41;95907.31;5027519;28;20029;-77
2021/11/13 01:46:32;;;;;;;29.98;15.50;;;;;;;2.07;62.00;95923.19;5026838;28;20056;-77
2021/11/13 01:48:58;;;;;;;27.80;15.27;;;;;;;2.07;61.57;95915.25;5027454;28;20049;-76
2021/11/13 01:51:25;;;;;;;25.95;15.63;;;;;;;2.03;61.22;95905.88;5026545;28;20013;-77
2021/11/13 01:53:51;;;;;;;29.77;16.42;;;;;;;1.96;61.88;95914.25;5026136;28;20102;-76
2021/11/13 01:56:19;;;;;;;28.15;15.82;;;;;;;1.93;62.26;95910.97;5026086;28;20457;-77
2021/11/13 01:58:45;;;;;;;31.88;16.52;;;;;;;1.91;62.76;95907.59;5026170;28;20025;-77
2021/11/13 02:01:11;;;;;;;27.67;16.08;;;;;;;1.87;62.36;95906.13;5026090;28;20114;-77
2021/11/13 02:03:36;;;;;;;27.75;16.60;;;;;;;1.89;62.06;95910.34;5027996;28;20460;-75
2021/11/13 02:06:01;;;;;;;31.17;16.05;;;;;;;1.84;62.48;95902.75;5027144;28;20021;-76
2021/11/13 02:08:27;;;;;;;30.42;16.25;;;;;;;1.81;62.11;95904.75;5027179;28;20029;-77
2021/11/13 02:10:52;;;;;;;28.10;16.83;;;;;;;1.78;62.72;95905.84;5026962;28;20482;-78
2021/11/13 02:13:18;;;;;;;26.85;16.15;;;;;;;1.74;61.92;95909.66;5027358;28;20021;-78
2021/11/13 02:15:43;;;;;;;31.10;15.57;;;;;;;1.77;61.33;95905.94;5027160;28;20029;-77
2021/11/13 02:18:09;;;;;;;26.35;15.55;;;;;;;1.76;61.90;95912.19;5026850;28;20033;-77
2021/11/13 02:20:38;;;;;;;27.67;15.32;;;;;;;1.68;62.97;95918.03;5027272;28;20059;-76
2021/11/13 02:23:11;;;;;;;35.97;16.35;;;;;;;1.65;62.50;95916.44;5025442;28;20061;-78
2021/11/13 02:25:36;;;;;;;27.10;15.65;;;;;;;1.58;62.76;95913.38;5027642;28;20033;-75
2021/11/13 02:28:02;;;;;;;33.28;17.05;;;;;;;1.63;62.88;95913.06;5026860;28;20033;-78
2021/11/13 02:30:27;;;;;;;25.85;14.63;;;;;;;1.58;62.99;95908.09;5009724;28;20511;-77
2021/11/13 02:32:54;;;;;;;31.00;16.30;;;;;;;1.56;62.62;95910.03;5027034;28;20028;-77
2021/11/13 02:35:20;;;;;;;28.50;15.98;;;;;;;1.52;62.68;95908.53;5025273;28;20033;-76
2021/11/13 02:37:45;;;;;;;30.48;17.02;;;;;;;1.53;62.18;95904.94;5024357;28;20025;-77
2021/11/13 02:40:11;;;;;;;29.42;16.30;;;;;;;1.46;62.40;95906.34;5042459;28;20400;-77
2021/11/13 02:42:37;;;;;;;31.70;17.10;;;;;;;1.42;63.06;95905.69;5043898;28;20025;-77
2021/11/13 02:45:06;;;;;;;27.38;16.40;;;;;;;1.40;62.52;95901.50;5026152;28;20427;-77
2021/11/13 02:47:31;;;;;;;32.90;16.25;;;;;;;1.40;63.33;95910.28;5026908;28;20538;-76
2021/11/13 02:49:57;;;;;;;28.73;16.52;;;;;;;1.34;62.74;95908.88;5026265;28;20244;-76
2021/11/13 02:52:22;;;;;;;26.45;16.13;;;;;;;1.38;62.35;95921.88;5024787;28;20029;-77
2021/11/13 02:54:48;;;;;;;28.65;16.70;;;;;;;1.31;63.09;95916.19;5026546;28;20370;-78
2021/11/13 02:57:14;;;;;;;34.90;16.45;;;;;;;1.26;63.42;95907.75;5026382;28;20040;-78
2021/11/13 02:59:43;;;;;;;32.13;15.95;;;;;;;1.30;63.04;95915.34;5046618;28;20028;-77
2021/11/13 03:02:08;;;;;;;30.77;16.48;;;;;;;1.36;62.84;95916.72;5046154;28;20033;-77
2021/11/13 03:04:33;;;;;;;30.67;16.15;;;;;;;1.37;63.18;95915.75;5028218;28;20567;-76
2021/11/13 03:06:59;;;;;;;25.50;15.73;;;;;;;1.40;62.98;95917.34;5024725;28;20438;-76
2021/11/13 03:09:24;;;;;;;27.67;15.50;;;;;;;1.35;62.24;95918.50;5025419;28;20516;-78
2021/11/13 03:11:50;;;;;;;23.45;14.60;;;;;;;1.28;62.92;95919.91;5026077;28;20022;-78
2021/11/13 03:14:15;;;;;;;27.15;15.02;;;;;;;1.26;63.33;95915.69;5024709;28;20029;-77
2021/11/13 03:16:41;;;;;;;25.52;13.45;;;;;;;1.33;62.54;95919.56;5026432;28;20034;-77
2021/11/13 03:19:06;;;;;;;25.15;13.70;;;;;;;1.44;62.00;95916.16;5026027;28;20030;-76
2021/11/13 03:21:31;;;;;;;24.30;14.13;;;;;;;1.29;63.35;95908.38;5026511;28;20025;-77
2021/11/13 03:23:57;;;;;;;24.98;13.45;;;;;;;1.33;62.45;95909.84;5025569;28;20033;-77
2021/11/13 03:26:23;;;;;;;27.70;14.00;;;;;;;1.30;62.76;95915.34;5025660;28;20025;-76
2021/11/13 03:28:51;;;;;;;24.50;13.18;;;;;;;1.22;62.39;95917.69;5024252;28;20077;-77
2021/11/13 03:31:17;;;;;;;25.95;14.30;;;;;;;1.13;63.00;95918.34;5025052;28;20470;-77
2021/11/13 03:33:42;;;;;;;30.08;13.70;;;;;;;1.15;63.15;95916.41;5029570;28;20060;-76
2021/11/13 03:36:08;;;;;;;21.52;13.43;;;;;;;1.15;62.81;95924.34;5044285;28;20041;-76
2021/11/13 03:38:36;;;;;;;33.17;15.20;;;;;;;1.12;62.48;95922.75;5032368;28;20049;-78
2021/11/13 03:41:01;;;;;;;26.23;15.93;;;;;;;1.03;62.63;95921.59;5029719;28;20038;-77
2021/11/13 03:43:27;;;;;;;37.08;15.90;;;;;;;0.94;62.81;95925.72;5045927;28;20407;-77
2021/11/13 03:45:52;;;;;;;30.13;15.48;;;;;;;0.88;62.51;95920.00;5048581;28;20411;-77
2021/11/13 03:48:18;;;;;;;33.80;16.67;;;;;;;0.84;62.13;95925.50;5050878;28;20490;-76
2021/11/13 03:50:43;;;;;;;30.17;15.38;;;;;;;0.84;62.93;95930.78;5049770;28;20111;-77
2021/11/13 03:53:09;;;;;;;28.77;15.25;;;;;;;0.83;63.14;95923.81;5049762;28;20021;-77
2021/11/13 03:55:34;;;;;;;28.20;14.82;;;;;;;0.78;62.71;95919.78;5047810;28;20021;-76
2021/11/13 03:58:00;;;;;;;28.85;16.50;;;;;;;0.82;63.16;95921.28;5033089;28;20044;-76
2021/11/13 04:00:26;;;;;;;28.35;15.07;;;;;;;0.80;63.04;95916.09;5029608;28;20087;-76
2021/11/13 04:02:52;;;;;;;29.02;15.20;;;;;;;0.83;63.67;95922.97;5028267;28;20038;-77
2021/11/13 04:05:18;;;;;;;28.05;15.68;;;;;;;0.81;63.00;95924.84;5028088;28;20021;-77
2021/11/13 04:07:43;;;;;;;27.02;15.00;;;;;;;0.75;63.46;95920.84;5029179;28;20032;-78
2021/11/13 04:10:09;;;;;;;27.80;15.27;;;;;;;0.75;63.78;95918.22;5028416;28;20107;-76
2021/11/13 04:12:35;;;;;;;27.13;14.60;;;;;;;0.83;63.65;95921.19;5011265;28;20104;-78
2021/11/13 04:15:01;;;;;;;29.90;14.93;;;;;;;0.90;63.56;95928.69;5027771;28;20503;-77
2021/11/13 04:17:27;;;;;;;28.70;15.65;;;;;;;0.83;63.93;95926.47;5029924;28;20447;-77
2021/11/13 04:19:52;;;;;;;32.78;15.38;;;;;;;0.80;64.05;95928.44;5028705;28;20503;-77
2021/11/13 04:22:18;;;;;;;26.63;15.98;;;;;;;0.79;63.24;95927.59;5030101;28;20423;-77
2021/11/13 04:24:43;;;;;;;26.38;15.00;;;;;;;0.75;62.95;95918.22;5028545;28;20471;-78
2021/11/13 04:27:09;;;;;;;28.52;16.05;;;;;;;0.73;63.47;95928.88;5029711;28;20053;-78
2021/11/13 04:29:34;;;;;;;34.15;15.88;;;;;;;0.71;62.84;95932.56;5028929;28;20495;-77
2021/11/13 04:32:00;;;;;;;26.38;16.05;;;;;;;0.60;62.81;95926.22;5028671;28;20018;-78
2021/11/13 04:34:26;;;;;;;27.20;16.30;;;;;;;0.61;62.64;95932.34;5028185;28;20024;-78
2021/11/13 04:36:53;;;;;;;26.55;15.30;;;;;;;0.61;63.49;95938.44;5044081;28;20118;-79
2021/11/13 04:39:20;;;;;;;27.55;14.82;;;;;;;0.57;63.73;95933.47;5048276;28;20117;-78
2021/11/13 04:41:46;;;;;;;33.05;16.50;;;;;;;0.47;63.66;95928.81;5048188;28;20028;-77
2021/11/13 04:44:11;;;;;;;25.20;14.27;;;;;;;0.46;62.81;95936.84;5047791;28;20028;-76
2021/11/13 04:46:37;;;;;;;27.13;14.93;;;;;;;0.44;63.58;95933.44;5048308;28;20442;-77
2021/11/13 04:49:02;;;;;;;29.63;15.65;;;;;;;0.39;63.88;95946.13;5048198;28;20483;-77
2021/11/13 04:51:28;;;;;;;25.02;14.68;;;;;;;0.41;64.46;95942.44;5048064;28;20113;-77
2021/11/13 04:53:53;;;;;;;24.27;14.18;;;;;;;0.45;63.81;95945.72;5048373;28;20029;-77
2021/11/13 04:56:19;;;;;;;25.63;13.50;;;;;;;0.46;64.02;95948.25;5048562;28;20029;-77
2021/11/13 04:58:44;;;;;;;28.98;13.73;;;;;;;0.47;63.23;95946.44;5047100;28;20032;-78
2021/11/13 05:01:10;;;;;;;25.60;14.75;;;;;;;0.46;63.80;95937.69;5048734;28;20036;-79
2021/11/13 05:03:35;;;;;;;22.50;13.85;;;;;;;0.48;63.88;95948.16;5047954;28;20044;-78
2021/11/13 05:06:01;;;;;;;29.05;14.68;;;;;;;0.52;63.34;95941.72;5047979;28;20021;-76
2021/11/13 05:08:26;;;;;;;25.35;14.35;;;;;;;0.59;63.76;95945.66;5047642;28;20053;-77
2021/11/13 05:10:52;;;;;;;30.98;15.07;;;;;;;0.68;62.80;95948.59;5037893;28;20037;-77
2021/11/13 05:13:18;;;;;;;29.70;14.98;;;;;;;0.71;62.86;95946.59;5028189;28;20029;-77
2021/11/13 05:15:43;;;;;;;24.75;14.10;;;;;;;0.67;62.70;95945.13;5026880;28;20029;-76
2021/11/13 05:18:09;;;;;;;27.00;14.63;;;;;;;0.58;63.22;95957.13;5028259;28;20033;-77
2021/11/13 05:20:35;;;;;;;39.53;14.88;;;;;;;0.57;63.70;95951.97;5035637;28;21304;-75
2021/11/13 05:23:00;;;;;;;28.55;14.43;;;;;;;0.53;63.73;95948.69;5033337;28;20390;-76
2021/11/13 05:25:26;;;;;;;24.73;14.25;;;;;;;0.57;63.79;95951.97;5026696;28;20499;-75
2021/11/13 05:27:51;;;;;;;27.30;14.38;;;;;;;0.53;63.62;95946.06;5042392;28;20040;-75
2021/11/13 05:30:17;;;;;;;30.77;15.60;;;;;;;0.49;64.15;95947.19;5012532;28;20689;-75
2021/11/13 05:32:43;;;;;;;27.27;15.70;;;;;;;0.54;63.49;95953.03;5031857;28;20025;-76
2021/11/13 05:35:09;;;;;;;30.02;14.60;;;;;;;0.56;63.70;95951.13;5029921;28;20032;-75
2021/11/13 05:37:35;;;;;;;26.80;14.75;;;;;;;0.63;63.81;95962.09;5047475;28;20041;-74
2021/11/13 05:40:01;;;;;;;30.92;17.13;;;;;;;0.63;63.17;95974.47;5038016;28;20040;-76
2021/11/13 05:42:26;;;;;;;34.03;17.17;;;;;;;0.68;62.89;95973.22;5034767;28;20579;-77
2021/11/13 05:44:52;;;;;;;34.50;18.63;;;;;;;0.73;63.51;95973.75;5037246;28;20028;-76
2021/11/13 05:47:17;;;;;;;36.40;18.38;;;;;;;0.86;62.54;95976.44;5034096;28;20032;-77
2021/11/13 05:49:42;;;;;;;31.83;18.52;;;;;;;0.94;62.68;95980.34;5043358;28;20029;-79
2021/11/13 05:52:08;;;;;;;34.42;18.40;;;;;;;1.03;62.17;95982.34;5046067;28;20025;-78
2021/11/13 05:54:33;;;;;;;39.30;18.67;;;;;;;1.11;62.54;95982.69;5042636;28;20113;-79
2021/11/13 05:56:59;;;;;;;40.53;18.88;;;;;;;1.24;62.02;95979.22;5047065;28;20029;-77
2021/11/13 05:59:24;;;;;;;39.30;20.23;;;;;;;1.40;62.03;95986.06;5044118;28;20029;-78
2021/11/13 06:01:50;;;;;;;35.22;19.45;;;;;;;1.57;61.91;95984.88;5045767;28;20067;-79
2021/11/13 06:04:15;;;;;;;41.90;19.83;;;;;;;1.67;60.45;95987.75;5045350;28;20021;-78
2021/11/13 06:06:40;;;;;;;36.85;18.27;;;;;;;1.80;61.35;95985.06;5046740;28;20021;-79
2021/11/13 06:09:06;;;;;;;38.10;19.65;;;;;;;1.91;60.79;95979.88;5044831;28;20036;-79
2021/11/13 06:11:32;;;;;;;47.03;19.35;;;;;;;2.07;59.56;95984.91;5047430;28;20032;-79
2021/11/13 06:13:57;;;;;;;32.13;17.35;;;;;;;2.24;58.66;95982.84;5046108;28;20029;-80
2021/11/13 06:16:22;;;;;;;33.85;16.58;;;;;;;2.25;58.75;95989.81;5045404;28;20024;-78
2021/11/13 06:18:48;;;;;;;32.67;18.83;;;;;;;2.28;58.54;95994.91;5046272;28;20040;-77
2021/11/13 06:21:13;;;;;;;31.73;16.75;;;;;;;2.38;59.03;95999.50;5044368;28;20025;-80
2021/11/13 06:23:39;;;;;;;32.25;16.17;;;;;;;2.38;58.57;96000.38;5038253;28;20025;-80
2021/11/13 06:26:05;;;;;;;37.92;17.65;;;;;;;2.42;59.17;96001.81;5034884;28;20024;-79
2021/11/13 06:28:31;;;;;;;27.30;16.38;;;;;;;2.59;57.99;95997.09;5034186;28;20021;-79
2021/11/13 06:30:56;;;;;;;33.90;16.42;;;;;;;2.68;57.93;96000.84;5037114;28;20026;-78
2021/11/13 06:33:22;;;;;;;28.60;16.20;;;;;;;2.79;58.00;96000.91;5033661;28;20032;-79
2021/11/13 06:35:47;;;;;;;26.10;15.63;;;;;;;2.89;57.55;96010.81;5035364;28;20053;-79
2021/11/13 06:38:13;;;;;;;33.05;16.83;;;;;;;2.97;57.92;96003.13;5036039;28;20013;-79
2021/11/13 06:40:38;;;;;;;26.90;16.02;;;;;;;3.22;57.38;95999.47;5042760;28;20032;-77
2021/11/13 06:43:04;;;;;;;35.03;16.08;;;;;;;3.41;57.06;96002.53;5044931;28;20021;-77
2021/11/13 06:45:29;;;;;;;28.27;16.75;;;;;;;3.46;56.79;96000.38;5035291;28;20026;-80
2021/11/13 06:47:54;;;;;;;33.35;18.75;;;;;;;3.58;56.04;95994.09;5032899;28;20664;-79
2021/11/13 06:50:20;;;;;;;36.25;18.85;;;;;;;3.71;56.09;96001.09;5041096;28;20033;-77
2021/11/13 06:52:46;;;;;;;37.88;18.80;;;;;;;3.82;56.24;95994.97;5034186;28;20029;-79
2021/11/13 06:55:11;;;;;;;35.00;18.23;;;;;;;4.03;56.07;96003.00;5034868;28;20024;-77
2021/11/13 06:57:37;;;;;;;34.10;17.80;;;;;;;4.23;55.43;95992.63;5045684;28;20036;-76
2021/11/13 07:00:05;;;;;;;28.95;16.58;;;;;;;4.50;55.15;95998.47;5043076;28;20029;-82
2021/11/13 07:02:31;;;;;;;30.60;17.17;;;;;;;4.74;54.58;95992.94;5045297;28;20131;-78
2021/11/13 07:04:56;;;;;;;30.52;16.13;;;;;;;4.92;54.17;95995.91;5045781;28;20032;-78
2021/11/13 07:07:22;;;;;;;30.58;16.85;;;;;;;4.97;53.63;95990.19;5045612;28;20029;-78
2021/11/13 07:09:47;;;;;;;24.80;16.20;;;;;;;5.00;53.38;95992.59;5046136;28;20044;-78
2021/11/13 07:12:13;;;;;;;36.25;16.67;;;;;;;5.17;53.47;95995.66;5045741;28;20042;-81
2021/11/13 07:14:38;;;;;;;27.15;16.45;;;;;;;5.22;53.40;95993.47;5046156;28;20150;-77
2021/11/13 07:17:04;;;;;;;31.02;17.00;;;;;;;5.34;52.68;95994.22;5045962;28;20029;-80
2021/11/13 07:19:29;;;;;;;25.42;16.60;;;;;;;5.49;52.82;95988.56;5045282;28;20506;-77
2021/11/13 07:21:54;;;;;;;29.85;16.63;;;;;;;5.66;53.43;95990.63;5045369;28;20078;-79
2021/11/13 07:24:20;;;;;;;33.15;17.25;;;;;;;5.59;53.13;95989.47;5045406;28;20036;-81
2021/11/13 07:26:51;;;;;;;38.55;18.55;;;;;;;5.67;52.88;95997.63;5044244;28;20021;-78
2021/11/13 07:29:17;;;;;;;37.15;16.58;;;;;;;5.77;53.34;95987.03;5046616;28;20029;-77
2021/11/13 07:31:42;;;;;;;39.85;19.25;;;;;;;5.96;52.56;95993.44;5045790;28;20033;-77
2021/11/13 07:34:08;;;;;;;40.58;19.95;;;;;;;6.14;51.98;95993.63;5044620;28;20029;-77
2021/11/13 07:36:33;;;;;;;33.53;17.95;;;;;;;6.32;51.74;95990.31;5045772;28;20033;-77
2021/11/13 07:38:59;;;;;;;36.70;18.13;;;;;;;6.34;51.74;95992.84;5045531;28;20033;-77
2021/11/13 07:41:24;;;;;;;37.97;18.55;;;;;;;6.52;51.40;95991.22;5045185;28;20025;-77
2021/11/13 07:43:50;;;;;;;31.65;18.33;;;;;;;6.72;51.13;95988.59;5045606;28;20040;-77
2021/11/13 07:46:16;;;;;;;30.58;19.08;;;;;;;6.92;51.04;95986.75;5028694;28;20112;-78
2021/11/13 07:48:41;;;;;;;34.55;19.30;;;;;;;6.95;51.34;95985.63;5044199;28;20438;-79
2021/11/13 07:51:08;;;;;;;31.75;18.92;;;;;;;6.83;51.16;95981.41;5045622;28;20035;-79
2021/11/13 07:53:34;;;;;;;33.10;19.40;;;;;;;7.01;51.30;95979.72;5045995;28;20108;-77
2021/11/13 07:55:59;;;;;;;36.15;20.58;;;;;;;7.11;51.09;95976.22;5043942;28;20029;-76
2021/11/13 07:58:24;;;;;;;30.05;19.90;;;;;;;7.04;51.66;95984.78;5044927;28;20033;-78
2021/11/13 08:00:50;;;;;;;34.97;19.58;;;;;;;7.08;51.34;95985.34;5044859;28;20438;-78
2021/11/13 08:03:16;;;;;;;37.47;21.42;;;;;;;7.13;51.54;95977.75;5045255;28;20195;-77
2021/11/13 08:05:41;;;;;;;32.72;21.05;;;;;;;7.16;51.32;95989.97;5045088;28;20025;-77
2021/11/13 08:08:07;;;;;;;36.25;20.88;;;;;;;7.28;51.43;95988.84;5046075;28;20028;-78
2021/11/13 08:10:36;;;;;;;36.13;21.50;;;;;;;7.34;50.69;95979.41;5045234;28;20033;-79
2021/11/13 08:13:03;;;;;;;45.47;26.80;;;;;;;7.42;50.66;95992.03;5046505;28;20428;-79
2021/11/13 08:15:28;;;;;;;43.75;23.13;;;;;;;7.41;50.68;95985.88;5046437;28;20032;-79
2021/11/13 08:17:54;;;;;;;45.20;24.10;;;;;;;7.57;50.43;95988.91;5027892;28;20025;-81
2021/11/13 08:20:19;;;;;;;40.10;22.30;;;;;;;7.64;50.73;95990.03;5046351;28;20029;-81
2021/11/13 08:22:44;;;;;;;39.97;23.45;;;;;;;7.67;50.56;95985.22;5029006;28;20025;-79
2021/11/13 08:25:11;;;;;;;36.05;21.83;;;;;;;7.79;49.84;95987.72;5027759;28;20099;-78
2021/11/13 08:27:37;;;;;;;40.00;22.58;;;;;;;7.81;49.75;95991.09;5037751;28;20083;-78
2021/11/13 08:30:04;;;;;;;38.00;23.65;;;;;;;7.95;49.29;95987.09;5036501;28;20024;-78
2021/11/13 08:32:29;;;;;;;39.03;23.52;;;;;;;7.92;49.16;95995.41;5048144;28;20033;-77
2021/11/13 08:34:55;;;;;;;39.10;24.55;;;;;;;7.89;49.06;95987.69;5048514;28;20032;-82
2021/11/13 08:37:20;;;;;;;42.05;24.77;;;;;;;7.96;49.15;95978.13;5031036;28;20360;-78
2021/11/13 08:39:46;;;;;;;41.53;24.35;;;;;;;8.08;49.21;95969.88;5028868;28;20026;-80
2021/11/13 08:42:12;;;;;;;39.28;23.70;;;;;;;8.23;48.65;95970.25;5030461;28;20068;-81
2021/11/13 08:44:39;;;;;;;43.65;25.83;;;;;;;8.33;47.78;95971.06;5028677;28;20049;-80
2021/11/13 08:47:04;;;;;;;43.80;25.98;;;;;;;8.40;47.43;95968.59;5029027;28;20116;-80
2021/11/13 08:49:30;;;;;;;39.75;26.02;;;;;;;8.50;47.09;95960.50;5028376;28;20101;-80
2021/11/13 08:51:56;;;;;;;37.13;25.75;;;;;;;8.62;47.64;95966.53;5032448;28;20021;-80
2021/11/13 08:54:22;;;;;;;38.30;25.92;;;;;;;8.63;47.95;95966.38;5037764;28;20064;-82
2021/11/13 08:56:47;;;;;;;38.63;25.55;;;;;;;8.66;48.28;95954.53;5037516;28;20730;-80
2021/11/13 08:59:13;;;;;;;42.08;25.88;;;;;;;8.76;47.79;95954.47;5041038;28;20033;-81
2021/11/13 09:01:39;;;;;;;37.50;23.92;;;;;;;8.89;47.15;95948.72;5039579;28;20020;-80
2021/11/13 09:04:05;;;;;;;41.80;28.00;;;;;;;8.90;47.30;95948.56;5039507;28;20499;-80
2021/11/13 09:06:31;;;;;;;45.22;25.90;;;;;;;8.94;47.45;95943.75;5028682;28;20037;-79
2021/11/13 09:08:58;;;;;;;40.53;26.58;;;;;;;9.08;47.12;95944.19;5031609;28;20025;-78
2021/11/13 09:11:25;;;;;;;46.67;26.52;;;;;;;9.12;46.12;95940.22;5030886;28;20033;-80
2021/11/13 09:13:51;;;;;;;42.38;29.55;;;;;;;9.12;46.71;95934.88;5029449;28;20397;-80
2021/11/13 09:16:16;;;;;;;41.22;27.35;;;;;;;9.18;46.45;95936.06;5040213;28;20113;-80
2021/11/13 09:18:44;;;;;;;46.53;25.15;;;;;;;9.30;45.95;95929.50;5030875;28;20077;-79
2021/11/13 09:21:09;;;;;;;43.28;26.60;;;;;;;9.42;46.23;95932.72;5046274;28;20075;-81
2021/11/13 09:23:35;;;;;;;38.85;25.38;;;;;;;9.44;45.70;95930.75;5040101;28;20114;-82
2021/11/13 09:26:02;;;;;;;41.95;26.77;;;;;;;9.50;46.67;95927.44;5037460;28;20105;-81
2021/11/13 09:28:27;;;;;;;36.00;25.27;;;;;;;9.59;46.23;95920.28;5036861;28;20485;-79
2021/11/13 09:30:52;;;;;;;43.78;26.73;;;;;;;9.63;46.08;95916.28;5035588;28;20033;-80
2021/11/13 09:33:18;;;;;;;40.63;25.85;;;;;;;9.69;45.93;95920.16;5037535;28;20459;-76
2021/11/13 09:35:44;;;;;;;37.95;24.92;;;;;;;9.72;45.14;95917.16;5037944;28;20045;-80
2021/11/13 09:38:09;;;;;;;36.35;23.98;;;;;;;9.85;45.75;95902.50;5048182;28;20518;-80
2021/11/13 09:40:35;;;;;;;39.70;24.75;;;;;;;9.93;45.09;95907.06;5029518;28;20048;-81
2021/11/13 09:43:02;;;;;;;35.58;23.17;;;;;;;9.90;45.19;95900.16;5029006;28;20037;-81
2021/11/13 09:45:27;;;;;;;33.88;23.25;;;;;;;9.93;44.86;95899.84;5026238;28;20523;-80
2021/11/13 09:47:54;;;;;;;39.33;23.83;;;;;;;9.96;45.22;95893.34;5026339;28;20029;-81
2021/11/13 09:50:20;;;;;;;37.65;22.15;;;;;;;10.05;45.15;95883.47;5027527;28;20036;-80
2021/11/13 09:52:45;;;;;;;36.22;22.55;;;;;;;10.07;44.76;95884.16;5026971;28;20049;-81
2021/11/13 09:55:12;;;;;;;37.30;22.80;;;;;;;10.09;45.05;95882.16;5026421;28;20057;-81
2021/11/13 09:57:38;;;;;;;30.67;20.90;;;;;;;10.15;45.14;95881.50;5026749;28;20021;-79
2021/11/13 10:00:12;;;;;;;35.72;21.10;;;;;;;10.26;44.84;95869.63;5026778;28;20029;-82
2021/11/13 10:02:37;;;;;;;32.35;20.70;;;;;;;10.22;44.65;95874.47;5027380;28;20063;-81
2021/11/13 10:05:03;;;;;;;30.48;20.58;;;;;;;10.26;44.62;95864.28;5027750;28;20155;-81
2021/11/13 10:07:32;;;;;;;35.75;21.40;;;;;;;10.36;45.88;95869.50;5027020;28;20060;-79
2021/11/13 10:09:57;;;;;;;31.45;20.85;;;;;;;10.38;45.24;95864.81;5027338;28;20057;-80
2021/11/13 10:12:36;;;;;;;31.85;20.70;;;;;;;10.48;44.63;95857.47;5027646;28;20407;-83
2021/11/13 10:15:22;;;;;;;35.17;21.63;;;;;;;10.42;43.42;95858.09;5025424;28;20416;-84
2021/11/13 10:18:09;;;;;;;32.33;21.50;;;;;;;10.40;43.27;95857.41;5026427;28;20031;-81
2021/11/13 10:20:35;;;;;;;35.50;22.75;;;;;;;10.41;43.88;95842.19;5025753;28;20566;-80
2021/11/13 10:23:00;;;;;;;33.72;20.63;;;;;;;10.47;43.35;95845.06;5025555;28;20113;-81
2021/11/13 10:25:26;;;;;;;35.60;21.38;;;;;;;10.56;44.01;95840.53;5027482;28;20030;-79
2021/11/13 10:28:12;;;;;;;35.92;22.75;;;;;;;10.59;43.09;95839.38;5026396;28;20465;-83
2021/11/13 10:30:38;;;;;;;30.52;21.02;;;;;;;10.58;43.25;95835.00;5027566;28;20480;-81
2021/11/13 10:33:04;;;;;;;32.72;22.20;;;;;;;10.58;43.60;95833.16;5026746;28;20030;-82
2021/11/13 10:35:48;;;;;;;31.38;20.73;;;;;;;10.67;43.52;95825.13;5026652;28;20037;-80
2021/11/13 10:38:19;;;;;;;34.08;20.80;;;;;;;10.78;43.38;95822.13;5025851;28;20025;-82
2021/11/13 10:41:05;;;;;;;34.55;20.48;;;;;;;10.92;44.01;95819.72;5025066;28;20041;-85
2021/11/13 10:43:38;;;;;;;24.42;16.98;;;;;;;11.08;43.12;95816.19;5027277;28;20441;-82
2021/11/13 10:46:08;;;;;;;29.85;17.83;;;;;;;11.13;42.95;95811.16;5026660;28;20527;-82
2021/11/13 10:48:35;;;;;;;29.13;18.45;;;;;;;11.21;42.87;95805.78;5025719;28;20444;-82
2021/11/13 10:51:03;;;;;;;25.33;17.00;;;;;;;11.26;41.46;95810.63;5026902;28;20026;-83
2021/11/13 10:53:28;;;;;;;30.77;17.10;;;;;;;11.36;42.00;95805.06;5024758;28;20115;-81
2021/11/13 10:56:24;;;;;;;28.40;16.92;;;;;;;11.40;41.34;95795.63;5027124;28;20018;-82
2021/11/13 10:58:57;;;;;;;26.13;17.25;;;;;;;11.47;41.40;95799.31;5025485;28;20033;-81
2021/11/13 11:01:22;;;;;;;21.80;15.55;;;;;;;11.51;41.08;95799.78;5026672;28;20496;-81
2021/11/13 11:03:48;;;;;;;28.77;17.40;;;;;;;11.65;41.47;95792.88;5026433;28;20028;-81
2021/11/13 11:06:20;;;;;;;25.58;16.02;;;;;;;11.78;42.12;95794.13;5026109;28;20437;-81
2021/11/13 11:08:45;;;;;;;29.30;16.43;;;;;;;11.86;40.44;95791.41;5025656;28;20568;-82
2021/11/13 11:11:37;;;;;;;21.80;15.57;;;;;;;11.83;39.55;95791.78;5025837;28;20021;-81
2021/11/13 11:14:04;;;;;;;22.20;15.63;;;;;;;11.97;41.53;95788.34;5026913;28;20036;-82
2021/11/13 11:16:34;;;;;;;28.75;16.65;;;;;;;12.05;40.98;95778.53;5025014;28;20381;-81
2021/11/13 11:19:00;;;;;;;25.63;17.90;;;;;;;12.17;40.55;95777.13;5025965;28;20457;-81
2021/11/13 11:21:35;;;;;;;24.88;16.50;;;;;;;12.28;39.53;95772.38;5026478;28;20021;-81